sensor_id;sensor_type;location;lat;lon;timestamp;temperature;humidity
15111;DHT22;7656;51.954;7.998;2023-06-10T00:04:18;20.60;99.90
15111;DHT22;7656;51.954;7.998;2023-06-10T00:08:39;20.60;99.90
15111;DHT22;7656;51.954;7.998;2023-06-10T00:13:01;20.50;99.90
15111;DHT22;7656;51.954;7.998;2023-06-10T00:17:24;20.40;99.90
15111;DHT22;7656;51.954;7.998;2023-06-10T00:21:45;20.30;99.90
15111;DHT22;7656;51.954;7.998;2023-06-10T00:26:06;20.30;99.90
15111;DHT22;7656;51.954;7.998;2023-06-10T00:30:27;20.30;99.90
15111;DHT22;7656;51.954;7.998;2023-06-10T00:34:48;20.20;99.90
15111;DHT22;7656;51.954;7.998;2023-06-10T00:39:10;20.20;99.90
15111;DHT22;7656;51.954;7.998;2023-06-10T00:43:31;20.10;99.90
15111;DHT22;7656;51.954;7.998;2023-06-10T00:47:52;20.10;99.90
15111;DHT22;7656;51.954;7.998;2023-06-10T00:52:14;20.10;99.90
15111;DHT22;7656;51.954;7.998;2023-06-10T00:56:36;19.90;99.90
15111;DHT22;7656;51.954;7.998;2023-06-10T01:00:57;19.80;99.90
15111;DHT22;7656;51.954;7.998;2023-06-10T01:05:23;19.80;99.90
15111;DHT22;7656;51.954;7.998;2023-06-10T01:10:02;19.80;99.90
15111;DHT22;7656;51.954;7.998;2023-06-10T01:14:26;19.80;99.90
15111;DHT22;7656;51.954;7.998;2023-06-10T01:18:47;19.70;99.90
15111;DHT22;7656;51.954;7.998;2023-06-10T01:23:10;19.60;99.90
15111;DHT22;7656;51.954;7.998;2023-06-10T01:27:36;19.50;99.90
15111;DHT22;7656;51.954;7.998;2023-06-10T01:32:01;19.50;99.90
15111;DHT22;7656;51.954;7.998;2023-06-10T01:36:27;19.40;99.90
15111;DHT22;7656;51.954;7.998;2023-06-10T01:40:49;19.30;99.90
15111;DHT22;7656;51.954;7.998;2023-06-10T01:45:12;19.30;99.90
15111;DHT22;7656;51.954;7.998;2023-06-10T01:49:33;19.20;99.90
15111;DHT22;7656;51.954;7.998;2023-06-10T01:53:54;19.10;99.90
15111;DHT22;7656;51.954;7.998;2023-06-10T01:58:15;19.10;99.90
15111;DHT22;7656;51.954;7.998;2023-06-10T02:02:36;19.10;99.90
15111;DHT22;7656;51.954;7.998;2023-06-10T02:06:57;19.10;99.90
15111;DHT22;7656;51.954;7.998;2023-06-10T02:11:20;19.00;99.90
15111;DHT22;7656;51.954;7.998;2023-06-10T02:15:41;18.80;99.90
15111;DHT22;7656;51.954;7.998;2023-06-10T02:20:02;18.70;99.90
15111;DHT22;7656;51.954;7.998;2023-06-10T02:24:27;18.70;99.90
15111;DHT22;7656;51.954;7.998;2023-06-10T02:28:48;18.70;99.90
15111;DHT22;7656;51.954;7.998;2023-06-10T02:33:09;18.60;99.90
15111;DHT22;7656;51.954;7.998;2023-06-10T02:37:32;18.50;99.90
15111;DHT22;7656;51.954;7.998;2023-06-10T02:41:53;18.50;99.90
15111;DHT22;7656;51.954;7.998;2023-06-10T02:46:15;18.40;99.90
15111;DHT22;7656;51.954;7.998;2023-06-10T02:50:38;18.50;99.90
15111;DHT22;7656;51.954;7.998;2023-06-10T02:55:33;18.40;99.90
15111;DHT22;7656;51.954;7.998;2023-06-10T02:59:58;18.30;99.90
15111;DHT22;7656;51.954;7.998;2023-06-10T03:04:21;18.40;99.90
15111;DHT22;7656;51.954;7.998;2023-06-10T03:08:52;18.30;99.90
15111;DHT22;7656;51.954;7.998;2023-06-10T03:13:14;18.30;99.90
15111;DHT22;7656;51.954;7.998;2023-06-10T03:17:35;18.30;99.90
15111;DHT22;7656;51.954;7.998;2023-06-10T03:22:07;18.30;99.90
15111;DHT22;7656;51.954;7.998;2023-06-10T03:26:32;18.20;99.90
15111;DHT22;7656;51.954;7.998;2023-06-10T03:30:54;18.10;99.90
15111;DHT22;7656;51.954;7.998;2023-06-10T03:35:18;18.10;99.90
15111;DHT22;7656;51.954;7.998;2023-06-10T03:39:39;18.10;99.90
15111;DHT22;7656;51.954;7.998;2023-06-10T03:44:01;18.10;99.90
15111;DHT22;7656;51.954;7.998;2023-06-10T03:48:23;18.10;99.90
15111;DHT22;7656;51.954;7.998;2023-06-10T03:52:47;18.20;99.90
15111;DHT22;7656;51.954;7.998;2023-06-10T03:57:10;18.20;99.90
15111;DHT22;7656;51.954;7.998;2023-06-10T04:01:31;18.20;99.90
15111;DHT22;7656;51.954;7.998;2023-06-10T04:05:54;18.20;99.90
15111;DHT22;7656;51.954;7.998;2023-06-10T04:10:16;18.30;99.90
15111;DHT22;7656;51.954;7.998;2023-06-10T04:14:37;18.30;99.90
15111;DHT22;7656;51.954;7.998;2023-06-10T04:19:00;18.30;99.90
15111;DHT22;7656;51.954;7.998;2023-06-10T04:23:21;18.40;99.90
15111;DHT22;7656;51.954;7.998;2023-06-10T04:27:43;18.50;99.90
15111;DHT22;7656;51.954;7.998;2023-06-10T04:32:05;18.60;99.90
15111;DHT22;7656;51.954;7.998;2023-06-10T04:36:27;18.60;99.90
15111;DHT22;7656;51.954;7.998;2023-06-10T04:40:50;18.70;99.90
15111;DHT22;7656;51.954;7.998;2023-06-10T04:45:13;18.90;99.90
15111;DHT22;7656;51.954;7.998;2023-06-10T04:49:35;19.00;99.90
15111;DHT22;7656;51.954;7.998;2023-06-10T04:53:57;19.10;99.90
15111;DHT22;7656;51.954;7.998;2023-06-10T04:58:19;19.20;99.90
15111;DHT22;7656;51.954;7.998;2023-06-10T05:02:40;19.30;99.90
15111;DHT22;7656;51.954;7.998;2023-06-10T05:07:01;19.30;99.90
15111;DHT22;7656;51.954;7.998;2023-06-10T05:11:22;19.40;99.90
15111;DHT22;7656;51.954;7.998;2023-06-10T05:15:43;19.50;99.90
15111;DHT22;7656;51.954;7.998;2023-06-10T05:20:05;19.80;99.90
15111;DHT22;7656;51.954;7.998;2023-06-10T05:24:27;19.50;99.90
15111;DHT22;7656;51.954;7.998;2023-06-10T05:28:49;19.50;99.90
15111;DHT22;7656;51.954;7.998;2023-06-10T05:33:10;19.70;99.90
15111;DHT22;7656;51.954;7.998;2023-06-10T05:37:31;19.70;99.90
15111;DHT22;7656;51.954;7.998;2023-06-10T05:41:54;20.10;99.90
15111;DHT22;7656;51.954;7.998;2023-06-10T05:46:15;20.20;99.90
15111;DHT22;7656;51.954;7.998;2023-06-10T05:50:36;20.40;99.90
15111;DHT22;7656;51.954;7.998;2023-06-10T05:54:59;20.80;99.90
15111;DHT22;7656;51.954;7.998;2023-06-10T05:59:20;20.90;99.90
15111;DHT22;7656;51.954;7.998;2023-06-10T06:03:43;21.20;99.90
15111;DHT22;7656;51.954;7.998;2023-06-10T06:08:05;21.60;99.90
15111;DHT22;7656;51.954;7.998;2023-06-10T06:12:26;21.80;99.90
15111;DHT22;7656;51.954;7.998;2023-06-10T06:16:47;22.10;99.90
15111;DHT22;7656;51.954;7.998;2023-06-10T06:21:08;22.40;99.90
15111;DHT22;7656;51.954;7.998;2023-06-10T06:25:29;22.70;99.90
15111;DHT22;7656;51.954;7.998;2023-06-10T06:29:50;22.80;99.90
15111;DHT22;7656;51.954;7.998;2023-06-10T06:34:11;22.90;99.90
15111;DHT22;7656;51.954;7.998;2023-06-10T06:38:32;24.50;99.90
15111;DHT22;7656;51.954;7.998;2023-06-10T06:42:54;27.80;99.90
15111;DHT22;7656;51.954;7.998;2023-06-10T06:47:34;31.00;99.80
15111;DHT22;7656;51.954;7.998;2023-06-10T06:51:55;33.60;94.00
15111;DHT22;7656;51.954;7.998;2023-06-10T06:56:16;35.60;86.20
15111;DHT22;7656;51.954;7.998;2023-06-10T07:00:38;37.20;77.60
15111;DHT22;7656;51.954;7.998;2023-06-10T07:04:59;38.50;68.50
15111;DHT22;7656;51.954;7.998;2023-06-10T07:09:20;38.60;66.10
15111;DHT22;7656;51.954;7.998;2023-06-10T07:13:41;40.20;64.10
15111;DHT22;7656;51.954;7.998;2023-06-10T07:18:03;41.80;60.50
15111;DHT22;7656;51.954;7.998;2023-06-10T07:22:24;42.80;56.50
15111;DHT22;7656;51.954;7.998;2023-06-10T07:26:45;43.30;54.30
15111;DHT22;7656;51.954;7.998;2023-06-10T07:31:07;43.50;52.80
15111;DHT22;7656;51.954;7.998;2023-06-10T07:35:29;44.30;51.40
15111;DHT22;7656;51.954;7.998;2023-06-10T07:39:50;44.70;50.10
15111;DHT22;7656;51.954;7.998;2023-06-10T07:44:11;44.80;48.80
15111;DHT22;7656;51.954;7.998;2023-06-10T07:48:32;45.10;48.30
15111;DHT22;7656;51.954;7.998;2023-06-10T07:52:53;45.60;47.30
15111;DHT22;7656;51.954;7.998;2023-06-10T07:57:15;45.50;45.50
15111;DHT22;7656;51.954;7.998;2023-06-10T08:01:36;45.20;45.80
15111;DHT22;7656;51.954;7.998;2023-06-10T08:06:00;45.10;46.70
15111;DHT22;7656;51.954;7.998;2023-06-10T08:10:21;45.10;44.30
15111;DHT22;7656;51.954;7.998;2023-06-10T08:14:42;44.70;45.20
15111;DHT22;7656;51.954;7.998;2023-06-10T08:19:03;44.70;44.40
15111;DHT22;7656;51.954;7.998;2023-06-10T08:23:24;45.20;44.60
15111;DHT22;7656;51.954;7.998;2023-06-10T08:27:46;45.90;44.00
15111;DHT22;7656;51.954;7.998;2023-06-10T08:32:07;45.30;44.70
15111;DHT22;7656;51.954;7.998;2023-06-10T08:36:28;46.00;44.50
15111;DHT22;7656;51.954;7.998;2023-06-10T08:40:51;46.40;44.60
15111;DHT22;7656;51.954;7.998;2023-06-10T08:45:17;45.50;44.50
15111;DHT22;7656;51.954;7.998;2023-06-10T08:49:44;46.20;44.00
15111;DHT22;7656;51.954;7.998;2023-06-10T08:54:13;45.60;45.00
15111;DHT22;7656;51.954;7.998;2023-06-10T08:58:39;45.00;44.60
15111;DHT22;7656;51.954;7.998;2023-06-10T09:03:03;43.30;46.30
15111;DHT22;7656;51.954;7.998;2023-06-10T09:07:25;41.60;46.50
15111;DHT22;7656;51.954;7.998;2023-06-10T09:11:47;40.10;47.90
15111;DHT22;7656;51.954;7.998;2023-06-10T09:16:09;38.80;48.50
15111;DHT22;7656;51.954;7.998;2023-06-10T09:20:32;38.00;50.00
15111;DHT22;7656;51.954;7.998;2023-06-10T09:25:04;37.60;49.40
15111;DHT22;7656;51.954;7.998;2023-06-10T09:29:26;36.50;50.90
15111;DHT22;7656;51.954;7.998;2023-06-10T09:33:47;35.80;50.70
15111;DHT22;7656;51.954;7.998;2023-06-10T09:38:08;35.10;51.00
15111;DHT22;7656;51.954;7.998;2023-06-10T09:42:33;34.40;52.20
15111;DHT22;7656;51.954;7.998;2023-06-10T09:46:56;34.30;53.90
15111;DHT22;7656;51.954;7.998;2023-06-10T09:51:20;34.40;51.80
15111;DHT22;7656;51.954;7.998;2023-06-10T09:55:41;33.80;54.20
15111;DHT22;7656;51.954;7.998;2023-06-10T10:00:10;33.40;53.20
15111;DHT22;7656;51.954;7.998;2023-06-10T10:04:35;33.40;55.20
15111;DHT22;7656;51.954;7.998;2023-06-10T10:08:56;33.20;54.30
15111;DHT22;7656;51.954;7.998;2023-06-10T10:13:18;32.90;53.70
15111;DHT22;7656;51.954;7.998;2023-06-10T10:18:12;32.70;55.10
15111;DHT22;7656;51.954;7.998;2023-06-10T10:22:41;33.10;54.30
15111;DHT22;7656;51.954;7.998;2023-06-10T10:27:11;33.50;53.80
15111;DHT22;7656;51.954;7.998;2023-06-10T10:31:39;32.90;54.80
15111;DHT22;7656;51.954;7.998;2023-06-10T10:36:05;32.40;55.00
15111;DHT22;7656;51.954;7.998;2023-06-10T10:40:28;32.60;56.60
15111;DHT22;7656;51.954;7.998;2023-06-10T10:44:50;32.30;56.10
15111;DHT22;7656;51.954;7.998;2023-06-10T10:49:13;32.30;57.50
15111;DHT22;7656;51.954;7.998;2023-06-10T10:53:39;32.60;57.40
15111;DHT22;7656;51.954;7.998;2023-06-10T10:58:07;32.90;57.10
15111;DHT22;7656;51.954;7.998;2023-06-10T11:07:07;32.50;55.80
15111;DHT22;7656;51.954;7.998;2023-06-10T11:11:28;32.80;57.00
15111;DHT22;7656;51.954;7.998;2023-06-10T11:15:50;33.00;56.40
15111;DHT22;7656;51.954;7.998;2023-06-10T11:20:11;33.20;55.60
15111;DHT22;7656;51.954;7.998;2023-06-10T11:24:33;33.30;55.20
15111;DHT22;7656;51.954;7.998;2023-06-10T11:29:00;32.90;57.30
15111;DHT22;7656;51.954;7.998;2023-06-10T11:33:25;32.10;57.60
15111;DHT22;7656;51.954;7.998;2023-06-10T11:37:47;32.60;56.60
15111;DHT22;7656;51.954;7.998;2023-06-10T11:42:09;32.90;55.90
15111;DHT22;7656;51.954;7.998;2023-06-10T11:46:30;33.40;55.80
15111;DHT22;7656;51.954;7.998;2023-06-10T11:50:52;33.40;55.80
15111;DHT22;7656;51.954;7.998;2023-06-10T11:55:13;33.50;56.60
15111;DHT22;7656;51.954;7.998;2023-06-10T11:59:34;33.40;56.10
15111;DHT22;7656;51.954;7.998;2023-06-10T12:04:01;33.50;55.90
15111;DHT22;7656;51.954;7.998;2023-06-10T12:08:24;33.70;56.10
15111;DHT22;7656;51.954;7.998;2023-06-10T12:12:45;33.80;56.10
15111;DHT22;7656;51.954;7.998;2023-06-10T12:17:07;34.00;55.80
15111;DHT22;7656;51.954;7.998;2023-06-10T12:21:28;33.80;56.40
15111;DHT22;7656;51.954;7.998;2023-06-10T12:25:55;33.80;56.00
15111;DHT22;7656;51.954;7.998;2023-06-10T12:30:19;33.70;56.30
15111;DHT22;7656;51.954;7.998;2023-06-10T12:34:41;33.80;56.80
15111;DHT22;7656;51.954;7.998;2023-06-10T12:39:05;34.00;56.30
15111;DHT22;7656;51.954;7.998;2023-06-10T12:43:26;33.70;55.60
15111;DHT22;7656;51.954;7.998;2023-06-10T12:47:47;33.50;57.10
15111;DHT22;7656;51.954;7.998;2023-06-10T12:52:08;33.90;57.00
15111;DHT22;7656;51.954;7.998;2023-06-10T12:56:29;33.80;57.10
15111;DHT22;7656;51.954;7.998;2023-06-10T13:00:50;33.00;57.40
15111;DHT22;7656;51.954;7.998;2023-06-10T13:05:14;33.00;57.20
15111;DHT22;7656;51.954;7.998;2023-06-10T13:09:36;33.30;57.40
15111;DHT22;7656;51.954;7.998;2023-06-10T13:13:57;33.50;57.00
15111;DHT22;7656;51.954;7.998;2023-06-10T13:18:18;33.70;57.10
15111;DHT22;7656;51.954;7.998;2023-06-10T13:22:40;33.90;56.40
15111;DHT22;7656;51.954;7.998;2023-06-10T13:27:01;33.50;56.50
15111;DHT22;7656;51.954;7.998;2023-06-10T13:31:22;33.60;56.00
15111;DHT22;7656;51.954;7.998;2023-06-10T13:35:43;33.50;56.90
15111;DHT22;7656;51.954;7.998;2023-06-10T13:40:05;33.50;56.80
15111;DHT22;7656;51.954;7.998;2023-06-10T13:44:27;33.60;57.20
15111;DHT22;7656;51.954;7.998;2023-06-10T13:48:51;33.80;57.60
15111;DHT22;7656;51.954;7.998;2023-06-10T13:53:12;33.70;56.90
15111;DHT22;7656;51.954;7.998;2023-06-10T13:57:34;33.80;56.90
15111;DHT22;7656;51.954;7.998;2023-06-10T14:01:55;33.60;57.60
15111;DHT22;7656;51.954;7.998;2023-06-10T14:06:17;33.30;57.40
15111;DHT22;7656;51.954;7.998;2023-06-10T14:10:39;32.40;58.80
15111;DHT22;7656;51.954;7.998;2023-06-10T14:15:00;32.80;58.20
15111;DHT22;7656;51.954;7.998;2023-06-10T14:19:21;32.90;58.00
15111;DHT22;7656;51.954;7.998;2023-06-10T14:23:43;33.10;58.90
15111;DHT22;7656;51.954;7.998;2023-06-10T14:28:04;33.30;58.50
15111;DHT22;7656;51.954;7.998;2023-06-10T14:32:25;33.60;58.70
15111;DHT22;7656;51.954;7.998;2023-06-10T14:36:46;33.70;58.00
15111;DHT22;7656;51.954;7.998;2023-06-10T14:41:07;33.70;58.60
15111;DHT22;7656;51.954;7.998;2023-06-10T14:45:28;33.20;57.70
15111;DHT22;7656;51.954;7.998;2023-06-10T14:49:49;32.90;58.70
15111;DHT22;7656;51.954;7.998;2023-06-10T14:54:11;33.20;58.40
15111;DHT22;7656;51.954;7.998;2023-06-10T14:58:32;33.50;57.80
15111;DHT22;7656;51.954;7.998;2023-06-10T15:02:53;33.60;57.00
15111;DHT22;7656;51.954;7.998;2023-06-10T15:07:16;33.50;57.50
15111;DHT22;7656;51.954;7.998;2023-06-10T15:11:38;32.80;58.00
15111;DHT22;7656;51.954;7.998;2023-06-10T15:15:59;32.70;58.50
15111;DHT22;7656;51.954;7.998;2023-06-10T15:20:20;32.90;58.30
15111;DHT22;7656;51.954;7.998;2023-06-10T15:24:41;32.80;59.20
15111;DHT22;7656;51.954;7.998;2023-06-10T15:29:02;32.90;58.70
15111;DHT22;7656;51.954;7.998;2023-06-10T15:33:25;33.10;58.60
15111;DHT22;7656;51.954;7.998;2023-06-10T15:37:46;33.20;58.90
15111;DHT22;7656;51.954;7.998;2023-06-10T15:42:07;33.10;58.80
15111;DHT22;7656;51.954;7.998;2023-06-10T15:46:29;33.10;59.80
15111;DHT22;7656;51.954;7.998;2023-06-10T15:50:50;33.00;59.60
15111;DHT22;7656;51.954;7.998;2023-06-10T15:55:11;32.80;59.60
15111;DHT22;7656;51.954;7.998;2023-06-10T15:59:32;32.70;60.10
15111;DHT22;7656;51.954;7.998;2023-06-10T16:03:53;32.60;60.80
15111;DHT22;7656;51.954;7.998;2023-06-10T16:08:14;32.70;60.90
15111;DHT22;7656;51.954;7.998;2023-06-10T16:12:35;32.70;61.00
15111;DHT22;7656;51.954;7.998;2023-06-10T16:16:56;32.50;61.40
15111;DHT22;7656;51.954;7.998;2023-06-10T16:21:18;32.30;61.10
15111;DHT22;7656;51.954;7.998;2023-06-10T16:25:39;32.30;61.80
15111;DHT22;7656;51.954;7.998;2023-06-10T16:30:01;32.20;62.40
15111;DHT22;7656;51.954;7.998;2023-06-10T16:34:22;32.20;63.50
15111;DHT22;7656;51.954;7.998;2023-06-10T16:38:43;32.10;62.50
15111;DHT22;7656;51.954;7.998;2023-06-10T16:43:04;31.80;63.20
15111;DHT22;7656;51.954;7.998;2023-06-10T16:47:25;31.70;63.30
15111;DHT22;7656;51.954;7.998;2023-06-10T16:51:46;31.30;64.70
15111;DHT22;7656;51.954;7.998;2023-06-10T16:56:07;31.30;66.00
15111;DHT22;7656;51.954;7.998;2023-06-10T17:00:28;30.60;66.80
15111;DHT22;7656;51.954;7.998;2023-06-10T17:04:49;30.40;66.80
15111;DHT22;7656;51.954;7.998;2023-06-10T17:09:10;30.50;67.40
15111;DHT22;7656;51.954;7.998;2023-06-10T17:13:31;30.10;67.30
15111;DHT22;7656;51.954;7.998;2023-06-10T17:17:52;29.80;67.40
15111;DHT22;7656;51.954;7.998;2023-06-10T17:22:13;29.50;68.50
15111;DHT22;7656;51.954;7.998;2023-06-10T17:26:35;29.70;69.20
15111;DHT22;7656;51.954;7.998;2023-06-10T17:30:56;29.40;68.20
15111;DHT22;7656;51.954;7.998;2023-06-10T17:35:17;29.50;69.50
15111;DHT22;7656;51.954;7.998;2023-06-10T17:39:38;29.50;69.10
15111;DHT22;7656;51.954;7.998;2023-06-10T17:43:59;29.50;69.30
15111;DHT22;7656;51.954;7.998;2023-06-10T17:48:20;29.50;70.20
15111;DHT22;7656;51.954;7.998;2023-06-10T17:52:41;29.50;70.10
15111;DHT22;7656;51.954;7.998;2023-06-10T17:57:02;29.60;71.10
15111;DHT22;7656;51.954;7.998;2023-06-10T18:01:23;29.70;69.80
15111;DHT22;7656;51.954;7.998;2023-06-10T18:05:44;29.50;70.80
15111;DHT22;7656;51.954;7.998;2023-06-10T18:10:05;29.50;70.60
15111;DHT22;7656;51.954;7.998;2023-06-10T18:14:27;29.50;70.30
15111;DHT22;7656;51.954;7.998;2023-06-10T18:18:48;29.60;72.00
15111;DHT22;7656;51.954;7.998;2023-06-10T18:23:09;29.30;72.50
15111;DHT22;7656;51.954;7.998;2023-06-10T18:27:33;29.00;71.40
15111;DHT22;7656;51.954;7.998;2023-06-10T18:31:54;29.00;71.30
15111;DHT22;7656;51.954;7.998;2023-06-10T18:36:16;28.90;71.80
15111;DHT22;7656;51.954;7.998;2023-06-10T18:40:37;29.00;72.00
15111;DHT22;7656;51.954;7.998;2023-06-10T18:44:58;28.80;73.60
15111;DHT22;7656;51.954;7.998;2023-06-10T18:49:19;28.80;73.00
15111;DHT22;7656;51.954;7.998;2023-06-10T18:53:40;28.80;73.60
15111;DHT22;7656;51.954;7.998;2023-06-10T18:58:02;28.90;74.00
15111;DHT22;7656;51.954;7.998;2023-06-10T19:02:24;28.80;73.80
15111;DHT22;7656;51.954;7.998;2023-06-10T19:06:45;28.50;73.80
15111;DHT22;7656;51.954;7.998;2023-06-10T19:11:06;28.10;75.20
15111;DHT22;7656;51.954;7.998;2023-06-10T19:15:27;27.80;76.20
15111;DHT22;7656;51.954;7.998;2023-06-10T19:19:48;27.60;77.20
15111;DHT22;7656;51.954;7.998;2023-06-10T19:24:10;27.40;77.10
15111;DHT22;7656;51.954;7.998;2023-06-10T19:28:31;27.40;77.10
15111;DHT22;7656;51.954;7.998;2023-06-10T19:32:52;27.30;77.80
15111;DHT22;7656;51.954;7.998;2023-06-10T19:37:13;27.00;78.50
15111;DHT22;7656;51.954;7.998;2023-06-10T19:41:34;26.90;78.80
15111;DHT22;7656;51.954;7.998;2023-06-10T19:45:55;26.60;80.00
15111;DHT22;7656;51.954;7.998;2023-06-10T19:50:16;26.40;80.90
15111;DHT22;7656;51.954;7.998;2023-06-10T19:54:37;25.90;82.70
15111;DHT22;7656;51.954;7.998;2023-06-10T19:58:58;25.60;84.50
15111;DHT22;7656;51.954;7.998;2023-06-10T20:03:19;25.20;85.70
15111;DHT22;7656;51.954;7.998;2023-06-10T20:07:40;25.20;88.60
15111;DHT22;7656;51.954;7.998;2023-06-10T20:12:02;25.00;88.10
15111;DHT22;7656;51.954;7.998;2023-06-10T20:16:25;24.90;88.70
15111;DHT22;7656;51.954;7.998;2023-06-10T20:20:46;24.80;89.10
15111;DHT22;7656;51.954;7.998;2023-06-10T20:25:07;24.50;89.70
15111;DHT22;7656;51.954;7.998;2023-06-10T20:29:30;24.40;90.50
15111;DHT22;7656;51.954;7.998;2023-06-10T20:33:52;24.20;90.70
15111;DHT22;7656;51.954;7.998;2023-06-10T20:38:13;24.10;90.60
15111;DHT22;7656;51.954;7.998;2023-06-10T20:42:34;24.10;91.00
15111;DHT22;7656;51.954;7.998;2023-06-10T20:46:55;24.10;91.50
15111;DHT22;7656;51.954;7.998;2023-06-10T20:51:16;24.00;91.50
15111;DHT22;7656;51.954;7.998;2023-06-10T20:55:37;24.10;92.70
15111;DHT22;7656;51.954;7.998;2023-06-10T20:59:58;23.90;92.70
15111;DHT22;7656;51.954;7.998;2023-06-10T21:04:19;23.80;93.20
15111;DHT22;7656;51.954;7.998;2023-06-10T21:08:41;23.70;99.70
15111;DHT22;7656;51.954;7.998;2023-06-10T21:13:02;23.70;99.90
15111;DHT22;7656;51.954;7.998;2023-06-10T21:17:23;23.60;99.90
15111;DHT22;7656;51.954;7.998;2023-06-10T21:21:44;23.50;99.60
15111;DHT22;7656;51.954;7.998;2023-06-10T21:26:05;23.30;99.90
15111;DHT22;7656;51.954;7.998;2023-06-10T21:30:26;23.30;99.90
15111;DHT22;7656;51.954;7.998;2023-06-10T21:34:48;23.20;99.90
15111;DHT22;7656;51.954;7.998;2023-06-10T21:39:09;23.00;99.90
15111;DHT22;7656;51.954;7.998;2023-06-10T21:43:30;22.90;99.90
15111;DHT22;7656;51.954;7.998;2023-06-10T21:47:51;23.00;99.90
15111;DHT22;7656;51.954;7.998;2023-06-10T21:52:12;22.80;99.90
15111;DHT22;7656;51.954;7.998;2023-06-10T21:56:34;22.60;99.90
15111;DHT22;7656;51.954;7.998;2023-06-10T22:00:55;22.60;99.90
15111;DHT22;7656;51.954;7.998;2023-06-10T22:05:17;22.60;99.90
15111;DHT22;7656;51.954;7.998;2023-06-10T22:09:46;22.40;99.90
15111;DHT22;7656;51.954;7.998;2023-06-10T22:14:09;22.30;99.90
15111;DHT22;7656;51.954;7.998;2023-06-10T22:18:31;22.10;99.90
15111;DHT22;7656;51.954;7.998;2023-06-10T22:22:52;22.10;99.90
15111;DHT22;7656;51.954;7.998;2023-06-10T22:27:13;22.10;99.90
15111;DHT22;7656;51.954;7.998;2023-06-10T22:31:34;22.10;99.90
15111;DHT22;7656;51.954;7.998;2023-06-10T22:35:55;22.10;99.90
15111;DHT22;7656;51.954;7.998;2023-06-10T22:40:16;21.90;99.90
15111;DHT22;7656;51.954;7.998;2023-06-10T22:44:37;21.90;99.90
15111;DHT22;7656;51.954;7.998;2023-06-10T22:48:58;21.80;99.90
15111;DHT22;7656;51.954;7.998;2023-06-10T22:53:19;21.70;99.90
15111;DHT22;7656;51.954;7.998;2023-06-10T22:57:40;21.70;99.90
15111;DHT22;7656;51.954;7.998;2023-06-10T23:02:01;21.70;99.90
15111;DHT22;7656;51.954;7.998;2023-06-10T23:06:23;21.70;99.90
15111;DHT22;7656;51.954;7.998;2023-06-10T23:10:44;21.70;99.90
15111;DHT22;7656;51.954;7.998;2023-06-10T23:15:07;21.50;99.90
15111;DHT22;7656;51.954;7.998;2023-06-10T23:19:30;21.50;99.90
15111;DHT22;7656;51.954;7.998;2023-06-10T23:23:51;21.50;99.90
15111;DHT22;7656;51.954;7.998;2023-06-10T23:28:14;21.50;99.90
15111;DHT22;7656;51.954;7.998;2023-06-10T23:32:35;21.40;99.90
15111;DHT22;7656;51.954;7.998;2023-06-10T23:36:56;21.40;99.90
15111;DHT22;7656;51.954;7.998;2023-06-10T23:41:17;21.20;99.90
15111;DHT22;7656;51.954;7.998;2023-06-10T23:45:38;21.10;99.90
15111;DHT22;7656;51.954;7.998;2023-06-10T23:49:59;20.90;99.90
15111;DHT22;7656;51.954;7.998;2023-06-10T23:54:20;20.80;99.90
15111;DHT22;7656;51.954;7.998;2023-06-10T23:58:42;20.50;99.90
